Aviation Digital Data Service (ADDS)

Output produced by METARs form (0343 UTC 23 November 2017)
found at http://www.aviationweather.gov/adds/metars/
 
EDMA 230320Z AUTO 16003KT 9999 // NCD M01/M02 Q1011
EDDW 230320Z 18010KT CAVOK 09/03 Q1000
TAF EDDW 222300Z 2300/2324 19012KT 9999 FEW035 
     BECMG 2306/2308 20015G25KT 
     TEMPO 2309/2314 21020G35KT 
     PROB30 
     TEMPO 2314/2316 RA BKN014 
     BECMG 2315/2317 23009KT
       
ETSB 230320Z AUTO 21010KT 9999 // ////// 06/04 Q1005 ///
ETHB 230320Z 18013KT 9999 SCT300 11/03 Q1001 BLU+
ETHC 230320Z 17005KT 9999 SCT240 08/03 Q1002 BLU+
TAF EDLW 221700Z 2218/2318 17015KT CAVOK 
     BECMG 2222/2301 19015G25KT 
     TEMPO 2308/2316 21020G35KT
       
EDDC 230320Z 15009KT CAVOK 04/01 Q1008
TAF EDDC 222300Z 2300/2324 16007KT CAVOK 
     BECMG 2301/2304 16012KT 
     BECMG 2304/2307 16015G25KT
       
EDDL 230320Z 16014KT CAVOK 10/04 Q1001 NOSIG
TAF EDDL 222300Z 2300/2406 16014KT 9999 SCT040 
     BECMG 2303/2306 17015G30KT 
     PROB30 
     TEMPO 2309/2315 18020G35KT 
     TEMPO 2314/2317 SHRA BKN020TCU 
     BECMG 2315/2318 20010KT 
     TEMPO 2403/2406 16015KT RA
       
EDDE 230320Z 20013KT CAVOK 09/02 Q1006
TAF EDDE 222300Z 2300/2324 21011KT CAVOK 
     BECMG 2308/2310 21015G25KT 
     TEMPO 2310/2318 22020G30KT
       
ETHS 230320Z 19010KT 9999 FEW260 07/03 Q1002 BLU+
EDFH 230320Z 18014KT CAVOK 08/04 Q1006
TAF EDFH 222300Z 2300/2324 20012KT CAVOK 
     TEMPO 2304/2307 21015G25KT 
     BECMG 2307/2310 22015G35KT 
     PROB40 
     TEMPO 2313/2319 SHRA BKN020TCU 
     BECMG 2316/2319 21015G25KT 
     TEMPO 2319/2324 3000 -DZRA BKN008
       
EDDF 230320Z VRB01KT 9999 MIFG NSC 01/00 Q1008 NOSIG
TAF EDDF 222300Z 2300/2406 17003KT CAVOK 
     BECMG 2304/2307 20008KT 
     BECMG 2310/2313 20015G25KT BKN040 
     PROB30 
     TEMPO 2312/2318 SHRA SCT030TCU 
     BECMG 2319/2321 20008KT
       
EDNY 230320Z AUTO 00000KT 9999 M02/M02 Q1013
TAF EDNY 222300Z 2300/2324 VRB02KT CAVOK 
     TEMPO 2300/2310 0400 FZFG VV001 
     TEMPO 2310/2316 25005KT
       
ETHF 230320Z 11005KT 9999 06/03 Q1006 BLU+
ETNG 230250Z 20014G26KT CAVOK 13/03 Q1000
TAF COR ETNG 230200Z 2303/2318 22013G25KT CAVOK 
     BECMG 2304/2307 21018G35KT 
     PROB40 
     TEMPO 2307/2314 21025G42KT 
     BECMG 2313/2315 22015G25KT 
     PROB40 
     TEMPO 2314/2318 -RA SHRA SCT018CB BKN024 
     BECMG 2315/2317 26008KT
       
ETIC 230256Z AUTO 00000KT 9999 CLR M02/M02 A2983 RMK AO2 SLP118 T10221023 55006 $
TAF AMD ETIC 230226Z 2302/2404 VRB06KT 9999 SKC QNH2982INS 
     TEMPO 2303/2307 2400 BR 
     BECMG 2307/2308 17006KT 8000 BR SKC QNH2986INS 
     BECMG 2309/2310 19009KT 9999 NSW SKC QNH2987INS 
     BECMG 2315/2316 20012KT 9999 SCT050 QNH2992INS 
     BECMG 2321/2322 21006KT 6000 BR BKN050 QNH2997INS 
     BECMG 2323/2324 18006KT 3200 BR SCT015 BKN025 QNH2995INS TX12/2314Z TNM04/2306Z
       
EDDH 230320Z 15007KT CAVOK 08/03 Q1000 NOSIG
TAF EDDH 222300Z 2300/2406 18012KT 9999 FEW035 
     BECMG 2308/2310 21015G25KT 
     TEMPO 2310/2314 22020G35KT 
     BECMG 2315/2317 22009KT 
     PROB30 
     TEMPO 2315/2317 RA BKN014
       
EDHI 230320Z AUTO 20009KT 180V240 9999 // NCD 09/03 Q1000
EDDV 230320Z 18010KT CAVOK 10/03 Q1002
TAF EDDV 222300Z 2300/2324 18012KT 9999 FEW040 
     BECMG 2306/2308 20015G25KT 
     TEMPO 2309/2315 22020G30KT 
     BECMG 2316/2318 24009KT 
     PROB30 
     TEMPO 2316/2318 RA
       
ETIH 230340Z AUTO 00000KT 9999 BKN002 M02/M02 A2988 RMK AO2 SLP140 $
ETNH 230320Z 20015KT 9999 10/03 Q0998 BLU+
TAF ETNH 222302Z 2300/2312 19010G20KT 9999 NSW FEW270 
     TEMPO 2309/2312 21020G30KT 9999 NSW BKN050 BY ETGL
       
ETSH 230320Z 16007KT 9999 SCT230 04/01 Q1007 BLU+
ETSI 230320Z AUTO 07003KT //// // ////// M01/M01 Q1011 ///
EDSB 230320Z AUTO 18003KT 9999 NCD 01/01 Q1009
TAF EDSB 221700Z 2218/2318 20003KT CAVOK 
     BECMG 2309/2311 21012KT 
     PROB30 
     TEMPO 2311/2316 22015G25KT
       
EDVK 230220Z 19016KT CAVOK 09/03 Q1005
EDDK 230320Z 16016KT 140V200 CAVOK 11/04 Q1003 NOSIG
TAF EDDK 222300Z 2300/2406 14009KT 9999 SCT040 
     BECMG 2303/2306 15014KT 
     TEMPO 2309/2313 18015G25KT 
     BECMG 2313/2316 21012KT 
     BECMG 2317/2320 20006KT 
     BECMG 2400/2403 14011KT 
     PROB30 
     TEMPO 2403/2406 16015G30KT RA
       
ETNL 230320Z 20007KT 9999 FEW250 06/03 Q1002 BLU+
TAF ETNL 222322Z 2300/2312 19010KT 9999 NSW FEW020 FEW100 BY ETGL
       
ETSA 230320Z 17004KT 9999 SCT270 00/M02 Q1011 BLU+
TAF ETSA 221720Z 2218/2306 18007KT 8000 NSW SCT250 BY ETGL
       
ETHL 230320Z 23002KT 9999 FEW270 M01/M01 Q1012 BLU+
ETSL 230320Z 18005KT 9999 SCT280 M01/M02 Q1011 BLU+
EDDP 230320Z 19011KT CAVOK 06/03 Q1006 NOSIG
TAF EDDP 222300Z 2300/2324 18012KT CAVOK 
     BECMG 2308/2310 19015G25KT 
     BECMG 2317/2319 20013KT
       
EDDM 230320Z 10004KT 9999 2000N BCFG NSC M02/M02 Q1011 NOSIG
TAF EDDM 222300Z 2300/2406 10003KT CAVOK 
     PROB30 
     TEMPO 2302/2308 0400 FZFG VV001 
     BECMG 2315/2317 22005KT
       
EDDG 230320Z 15010KT CAVOK 10/03 Q1000 NOSIG
TAF EDDG 222300Z 2300/2324 16007KT 9999 SCT030 
     BECMG 2305/2308 18013KT 
     BECMG 2308/2310 21015G30KT 
     PROB30 
     TEMPO 2311/2315 21020G35KT 
     TEMPO 2314/2317 SHRA BKN020CB 
     BECMG 2315/2317 22013KT 
     BECMG 2317/2320 22008KT
       
ETSN 230320Z 21001KT 0400 FZFG M02/M02 Q1011 RED
TAF ETSN 230228Z 2303/2312 VRB03KT 3000 BR FEW250 
     TEMPO 2303/2309 VRB01KT 0500 FZFG VV001 
     BECMG 2309/2311 19005KT 9999 NSW FEW250 BY ETGL
       
ETHN 230320Z 16006KT 9999 FEW270 05/M00 Q1009 BLU+
ETMN 230320Z 19014KT 9999 SCT140 11/03 Q0997 BLU+
ETNN 230320Z AUTO 20014G24KT 6000 // ////// 10/03 Q1001 ///
EDDN 230320Z 11007KT CAVOK 03/01 Q1010
TAF EDDN 222300Z 2300/2324 15008KT CAVOK
       
EDLP 230320Z 17017KT CAVOK 11/02 Q1002
TAF EDLP 222300Z 2300/2324 18014KT CAVOK 
     BECMG 2302/2306 18015G25KT 
     BECMG 2309/2312 21020G30KT 
     BECMG 2314/2317 21015G25KT 
     BECMG 2318/2322 23011KT 
     PROB30 
     TEMPO 2318/2321 SHRA BKN020TCU
       
ETAR 230256Z 26005KT 9999 CLR 08/06 A2976 RMK AO2A SLP083 T00780061 55005 $
TAF ETAR 230206Z 2302/2408 24009KT 9999 SKC 510004 QNH2974INS 
     BECMG 2306/2307 22015G20KT 9999 SKC 510004 QNH2979INS 
     BECMG 2309/2310 22020G30KT 9999 SCT060 520004 QNH2980INS 
     TEMPO 2310/2315 22025G35KT 
     BECMG 2316/2317 22012G20KT 9999 BKN025 QNH2986INS 
     BECMG 2322/2323 21010G15KT 9999 BKN025 QNH2987INS TX14/2313Z TN06/2303Z
       
ETHE 230320Z AUTO 16006KT //// // ////// 10/03 Q0999 ///
EDDR 230320Z 20010KT 160V230 CAVOK 08/05 Q1007
TAF EDDR 222300Z 2300/2324 21012KT CAVOK 
     TEMPO 2303/2308 21015G25KT 
     BECMG 2308/2311 21015G30KT 
     PROB30 
     TEMPO 2311/2318 SHRA BKN025TCU 
     BECMG 2318/2321 21012KT 
     TEMPO 2321/2324 4000 -DZRA BKN010
       
ETNS 230320Z AUTO 19016G27KT 9000 // ////// 09/03 Q0997 ///
EDDB 230320Z 17004KT 140V200 CAVOK 04/03 Q1006 NOSIG
TAF EDDB 222300Z 2300/2324 18007KT CAVOK 
     BECMG 2308/2311 20012KT 
     TEMPO 2310/2316 20015G25KT
       
TAF EDOP 221700Z 2218/2318 18011KT CAVOK 
     BECMG 2308/2310 20015G25KT
       
ETAD 230256Z AUTO 20008KT 9999 CLR 05/03 A2969 RMK AO2 SLP052 T00520034 57007 TSNO $
TAF AMD ETAD 222059Z 2221/2401 20009KT 9999 SKC QNH2963INS 
     BECMG 2303/2304 20012G20KT 9999 FEW020 QNH2964INS 
     BECMG 2307/2308 20015G25KT 9999 BKN050 QNH2970INS 
     TEMPO 2308/2315 21025G35KT 520004 
     BECMG 2318/2319 23012G20KT 9000 -SHRA BKN020 QNH2980INS TX14/2314Z TN03/2300Z LAST NO AMDS AFT 2221 NEXT 2503
       
EDDS 230320Z 20003KT 150V280 CAVOK 04/01 Q1009
TAF EDDS 222300Z 2300/2324 VRB03KT CAVOK 
     BECMG 2309/2312 20008KT
       
EDDT 230320Z 16004KT 090V200 CAVOK 05/03 Q1006
TAF EDDT 222300Z 2300/2324 18007KT CAVOK 
     BECMG 2308/2311 20012KT 
     TEMPO 2311/2315 20015G25KT
       
ETOU 230256Z AUTO 07004KT 9999 CLR 01/01 A2977 RMK AO2 SLP087 T00130007 55002
TAF ETOU 230308Z 2303/2409 20009KT 9999 SKC QNH2971INS 
     BECMG 2309/2310 20012G20KT 9999 SCT050 510004 QNH2972INS 
     TEMPO 2311/2316 20015G25KT 
     BECMG 2317/2318 22012KT 8000 -SHRA BKN020 QNH2984INS 
     BECMG 2321/2322 21009KT 8000 -SHRA BKN020 QNH2984INS 
     BECMG 2405/2406 VRB06KT 8000 BR BKN020 QNH2984INS TX14/2312Z TN00/2304Z
       
ETNT 230320Z 19016KT 9999 BKN200 10/04 Q0996 BLU+
TAF ETNT 230221Z 2303/2312 19015G25KT 9999 NSW SCT120 BKN250 
     TEMPO 2309/2312 23018G35KT 7000 -SHRA SCT030 BKN050 BY ETGL
       
ETNW 230320Z 17010KT 9999 SCT250 09/03 Q1001 BLU+
TAF ETNW 222304Z 2300/2324 19012KT 9999 NSW SCT250 
     BECMG 2311/2314 22015G30KT 9999 NSW BKN040 
     TEMPO 2315/2320 23015G30KT 4000 RA BKN010 BY ETGL